Time;durP1;ratioP1;P1;durP2;ratioP2;P2;SDS_P1;SDS_P2;PMS_P1;PMS_P2;Temp;Humidity;BMP_temperature;BMP_pressure;BME280_temperature;BME280_humidity;BME280_pressure;Samples;Min_cycle;Max_cycle;Signal;HPM_P1;HPM_P2
2022/07/19 00:00:07;;;;;;;8.82;2.20;;;24.30;93.90;;;;;;5086453;28;20969;-66
2022/07/19 00:02:33;;;;;;;6.82;2.08;;;24.30;94.10;;;;;;5084649;28;20827;-66
2022/07/19 00:04:59;;;;;;;4.07;2.13;;;24.30;94.10;;;;;;5088742;28;20190;-64
2022/07/19 00:07:26;;;;;;;6.80;2.05;;;24.30;94.10;;;;;;5086567;28;20206;-67
2022/07/19 00:09:52;;;;;;;9.75;2.30;;;24.30;94.20;;;;;;5078591;28;20192;-65
2022/07/19 00:12:19;;;;;;;4.82;2.08;;;24.30;94.10;;;;;;5070338;28;20236;-65
2022/07/19 00:14:45;;;;;;;6.13;1.88;;;24.30;94.10;;;;;;5086347;28;20194;-66
2022/07/19 00:17:13;;;;;;;6.75;1.98;;;24.30;93.90;;;;;;5080123;28;20241;-64
2022/07/19 00:19:39;;;;;;;4.10;1.85;;;24.30;93.90;;;;;;5071010;28;20182;-64
2022/07/19 00:22:06;;;;;;;4.88;1.80;;;24.20;93.80;;;;;;5052913;28;20196;-64
2022/07/19 00:24:32;;;;;;;3.65;2.00;;;24.20;93.80;;;;;;5069045;28;20476;-65
2022/07/19 00:26:59;;;;;;;5.72;2.28;;;24.10;93.90;;;;;;5086637;28;20264;-64
2022/07/19 00:29:25;;;;;;;7.38;1.90;;;24.10;93.70;;;;;;5087186;28;20228;-63
2022/07/19 00:31:51;;;;;;;7.85;2.03;;;24.10;93.80;;;;;;5087599;28;20185;-66
2022/07/19 00:34:18;;;;;;;7.18;2.17;;;24.10;93.70;;;;;;5076348;28;20194;-64
2022/07/19 00:36:44;;;;;;;6.10;2.10;;;24.10;93.80;;;;;;5084560;28;20190;-65
2022/07/19 00:39:10;;;;;;;4.45;2.00;;;24.10;93.70;;;;;;5066081;28;20186;-65
2022/07/19 00:41:43;;;;;;;7.18;2.15;;;24.10;93.60;;;;;;5082347;28;20301;-67
2022/07/19 00:44:11;;;;;;;4.53;2.17;;;24.10;93.70;;;;;;5067008;28;20283;-67
2022/07/19 00:46:38;;;;;;;3.55;2.00;;;24.00;93.70;;;;;;5087676;28;20182;-66
2022/07/19 00:49:06;;;;;;;5.50;1.98;;;24.00;93.70;;;;;;5084793;28;20213;-64
2022/07/19 00:51:40;;;;;;;5.28;2.03;;;23.90;93.60;;;;;;5085255;28;20183;-68
2022/07/19 00:54:10;;;;;;;4.00;1.90;;;24.00;93.70;;;;;;5087625;28;20186;-65
2022/07/19 00:56:38;;;;;;;4.60;1.70;;;24.00;93.60;;;;;;5087429;28;20700;-64
2022/07/19 00:59:05;;;;;;;6.00;1.95;;;23.90;93.50;;;;;;5077835;28;20257;-64
2022/07/19 01:01:32;;;;;;;9.95;2.33;;;24.00;93.60;;;;;;5070000;28;20239;-68
2022/07/19 01:03:59;;;;;;;5.72;1.77;;;23.90;93.40;;;;;;5080032;28;20198;-66
2022/07/19 01:06:27;;;;;;;3.72;2.20;;;24.00;93.40;;;;;;5082397;28;20209;-63
2022/07/19 01:08:53;;;;;;;3.65;1.90;;;23.90;93.20;;;;;;5062277;28;20668;-65
2022/07/19 01:11:19;;;;;;;3.03;1.75;;;23.90;93.10;;;;;;5085253;28;20197;-65
2022/07/19 01:13:48;;;;;;;3.90;1.90;;;23.80;93.20;;;;;;5051079;28;20193;-65
2022/07/19 01:16:15;;;;;;;4.93;1.88;;;23.80;93.20;;;;;;5070221;28;20614;-67
2022/07/19 01:18:42;;;;;;;5.40;1.90;;;23.80;93.30;;;;;;5087597;28;20759;-64
2022/07/19 01:21:28;;;;;;;5.35;1.95;;;23.80;93.20;;;;;;5078377;28;20232;-66
2022/07/19 01:23:54;;;;;;;3.15;1.80;;;23.80;93.20;;;;;;5083794;28;20206;-64
2022/07/19 01:26:20;;;;;;;1.98;1.58;;;23.70;93.10;;;;;;5082381;28;20194;-65
2022/07/19 01:28:47;;;;;;;6.30;1.88;;;23.70;93.10;;;;;;5087163;28;20670;-65
2022/07/19 01:31:14;;;;;;;6.53;2.00;;;23.70;93.00;;;;;;5080912;28;20195;-66
2022/07/19 01:33:45;;;;;;;9.27;1.70;;;23.70;93.00;;;;;;5085429;28;20186;-64
2022/07/19 01:36:12;;;;;;;6.20;1.90;;;23.70;93.00;;;;;;5087345;28;20669;-67
2022/07/19 01:38:39;;;;;;;3.03;1.67;;;23.60;93.00;;;;;;5085400;28;20204;-68
2022/07/19 01:41:07;;;;;;;6.10;1.77;;;23.60;93.10;;;;;;5086589;28;20197;-65
2022/07/19 01:43:35;;;;;;;6.78;1.90;;;23.60;93.00;;;;;;5086454;28;20200;-68
2022/07/19 01:46:03;;;;;;;2.47;1.70;;;23.60;93.00;;;;;;5086649;28;20650;-66
2022/07/19 01:48:30;;;;;;;2.20;1.57;;;23.60;92.80;;;;;;5085837;28;20218;-66
2022/07/19 01:50:58;;;;;;;4.10;1.70;;;23.70;92.90;;;;;;5057307;28;20183;-64
2022/07/19 01:53:24;;;;;;;7.13;1.83;;;23.70;92.80;;;;;;5082235;28;20189;-65
2022/07/19 01:55:50;;;;;;;2.93;1.70;;;23.80;92.80;;;;;;5088199;28;20277;-64
2022/07/19 01:58:20;;;;;;;5.40;1.60;;;23.90;92.80;;;;;;5072460;28;20622;-64
2022/07/19 02:00:46;;;;;;;3.05;1.90;;;23.90;92.60;;;;;;5087431;28;20277;-66
2022/07/19 02:03:12;;;;;;;3.10;1.92;;;23.90;92.50;;;;;;5086756;28;20538;-64
2022/07/19 02:05:39;;;;;;;3.83;2.03;;;24.00;92.40;;;;;;5087038;28;20194;-65
2022/07/19 02:08:05;;;;;;;4.07;1.90;;;24.00;92.30;;;;;;5086472;28;20249;-66
2022/07/19 02:10:32;;;;;;;9.27;2.60;;;24.00;92.30;;;;;;5086575;28;20694;-63
2022/07/19 02:12:59;;;;;;;4.75;1.80;;;24.00;92.30;;;;;;5074839;28;20187;-66
2022/07/19 02:15:26;;;;;;;3.60;1.60;;;24.00;92.40;;;;;;5084356;28;20304;-64
2022/07/19 02:17:52;;;;;;;5.43;1.83;;;24.00;92.40;;;;;;5086063;28;20214;-68
2022/07/19 02:20:19;;;;;;;2.72;2.00;;;24.00;92.30;;;;;;5062895;28;20651;-65
2022/07/19 02:22:45;;;;;;;5.20;2.33;;;24.00;92.40;;;;;;5087120;28;20260;-66
2022/07/19 02:25:12;;;;;;;3.60;1.98;;;24.00;92.50;;;;;;5087281;28;20186;-65
2022/07/19 02:27:39;;;;;;;3.58;2.00;;;24.00;92.40;;;;;;5083172;28;20216;-64
2022/07/19 02:30:06;;;;;;;4.75;1.90;;;24.00;92.20;;;;;;5084934;28;20248;-67
2022/07/19 02:32:32;;;;;;;3.42;1.63;;;24.00;91.90;;;;;;5076916;28;20210;-64
2022/07/19 02:34:58;;;;;;;5.80;1.88;;;24.10;91.60;;;;;;5086357;28;20187;-65
2022/07/19 02:37:25;;;;;;;4.23;1.90;;;24.10;91.50;;;;;;5072508;28;20190;-66
2022/07/19 02:39:52;;;;;;;4.03;1.65;;;24.10;91.50;;;;;;5088828;28;20511;-65
2022/07/19 02:42:18;;;;;;;2.97;1.60;;;24.10;91.50;;;;;;5069404;28;20190;-66
2022/07/19 02:44:45;;;;;;;1.80;1.50;;;24.10;91.40;;;;;;5088456;28;20216;-66
2022/07/19 02:47:11;;;;;;;6.38;1.63;;;24.10;91.50;;;;;;5071946;28;20210;-66
2022/07/19 02:49:37;;;;;;;2.45;1.65;;;24.00;91.10;;;;;;5089448;28;20763;-65
2022/07/19 02:52:04;;;;;;;1.75;1.48;;;24.00;90.80;;;;;;5087659;28;20261;-65
2022/07/19 02:54:30;;;;;;;3.55;1.60;;;24.00;90.70;;;;;;5081885;28;20620;-65
2022/07/19 02:56:56;;;;;;;6.50;1.90;;;24.00;88.60;;;;;;5085535;28;20182;-65
2022/07/19 02:59:23;;;;;;;6.78;1.65;;;24.00;89.60;;;;;;5072431;28;20240;-64
2022/07/19 03:01:50;;;;;;;6.40;1.55;;;24.00;88.30;;;;;;5069113;28;20981;-66
2022/07/19 03:04:16;;;;;;;3.42;1.55;;;23.90;87.90;;;;;;5074872;28;20198;-64
2022/07/19 03:06:43;;;;;;;1.73;1.40;;;24.00;87.50;;;;;;5079363;28;20195;-63
2022/07/19 03:09:09;;;;;;;6.10;1.70;;;23.90;86.60;;;;;;5088211;28;20904;-65
2022/07/19 03:11:35;;;;;;;1.83;1.27;;;23.90;86.10;;;;;;5088039;28;20170;-65
2022/07/19 03:14:01;;;;;;;2.85;1.70;;;24.00;85.90;;;;;;5087985;28;20281;-63
2022/07/19 03:16:29;;;;;;;2.10;1.40;;;24.00;85.60;;;;;;5088951;28;20206;-63
2022/07/19 03:18:55;;;;;;;2.67;1.70;;;24.00;85.60;;;;;;5088503;28;20198;-64
2022/07/19 03:21:23;;;;;;;2.92;1.55;;;24.10;86.20;;;;;;5089496;28;20552;-65
2022/07/19 03:23:50;;;;;;;4.07;1.52;;;24.10;85.70;;;;;;5069273;28;20198;-65
2022/07/19 03:26:17;;;;;;;2.65;1.55;;;24.10;85.60;;;;;;5080346;28;20190;-65
2022/07/19 03:28:45;;;;;;;1.67;1.40;;;24.10;86.60;;;;;;5088688;28;20218;-64
2022/07/19 03:31:11;;;;;;;5.60;1.80;;;24.10;86.60;;;;;;5077533;28;20201;-63
2022/07/19 03:33:37;;;;;;;7.03;1.70;;;24.00;86.90;;;;;;5086842;28;20646;-64
2022/07/19 03:36:04;;;;;;;5.00;1.60;;;24.00;87.20;;;;;;5067287;28;20188;-64
2022/07/19 03:38:31;;;;;;;6.93;1.60;;;24.00;87.30;;;;;;5070353;28;20933;-65
2022/07/19 03:40:57;;;;;;;2.80;1.23;;;24.00;87.80;;;;;;5071739;28;20279;-65
2022/07/19 03:43:23;;;;;;;4.15;1.83;;;24.00;88.50;;;;;;5068179;28;20194;-65
2022/07/19 03:45:50;;;;;;;2.83;1.65;;;23.90;89.30;;;;;;5068679;28;20193;-64
2022/07/19 03:48:17;;;;;;;3.97;1.60;;;23.90;89.80;;;;;;5064749;28;20214;-66
2022/07/19 03:50:43;;;;;;;2.28;1.30;;;23.80;90.00;;;;;;5081393;28;20214;-64
2022/07/19 03:53:10;;;;;;;2.55;1.52;;;23.80;90.20;;;;;;5067495;28;20244;-65
2022/07/19 03:55:36;;;;;;;2.17;1.65;;;23.80;90.20;;;;;;5069575;28;20658;-65
2022/07/19 03:58:03;;;;;;;2.83;1.50;;;23.90;90.20;;;;;;5080004;28;20187;-64
2022/07/19 04:00:29;;;;;;;2.05;1.30;;;23.90;90.10;;;;;;5085896;28;20181;-63
2022/07/19 04:02:55;;;;;;;3.13;1.90;;;24.00;90.30;;;;;;5067643;28;20190;-67
2022/07/19 04:05:22;;;;;;;5.40;1.40;;;24.00;90.20;;;;;;5086626;28;20197;-66
2022/07/19 04:07:48;;;;;;;5.68;1.67;;;24.00;90.20;;;;;;5050984;28;20256;-66
2022/07/19 04:10:15;;;;;;;3.15;1.40;;;24.00;90.30;;;;;;5080803;28;20178;-64
2022/07/19 04:12:41;;;;;;;2.13;1.50;;;24.00;90.60;;;;;;5060349;28;20653;-64
2022/07/19 04:15:09;;;;;;;4.60;1.50;;;24.10;90.90;;;;;;5089198;28;20190;-66
2022/07/19 04:17:36;;;;;;;4.82;1.73;;;24.10;91.00;;;;;;5052954;28;20290;-68
2022/07/19 04:20:03;;;;;;;3.55;1.70;;;24.10;91.20;;;;;;5083834;28;20236;-66
2022/07/19 04:22:30;;;;;;;2.58;1.50;;;24.10;91.30;;;;;;5076792;28;20183;-63
2022/07/19 04:24:58;;;;;;;5.05;1.65;;;24.10;91.40;;;;;;5088329;28;20554;-68
2022/07/19 04:27:24;;;;;;;3.95;1.80;;;24.20;92.00;;;;;;5087051;28;20841;-66
2022/07/19 04:29:50;;;;;;;4.20;1.50;;;24.30;91.80;;;;;;5079089;28;20279;-65
2022/07/19 04:32:16;;;;;;;3.65;1.80;;;24.30;91.90;;;;;;5067369;28;20182;-65
2022/07/19 04:34:42;;;;;;;2.20;1.65;;;24.40;92.10;;;;;;5087224;28;20280;-65
2022/07/19 04:37:09;;;;;;;6.25;1.63;;;24.50;92.30;;;;;;5053606;28;20201;-67
2022/07/19 04:39:35;;;;;;;4.47;1.60;;;24.60;92.00;;;;;;5063245;28;20205;-65
2022/07/19 04:42:01;;;;;;;1.93;1.67;;;24.70;91.60;;;;;;5078862;28;20182;-66
2022/07/19 04:44:28;;;;;;;2.25;1.70;;;24.80;91.00;;;;;;5067306;28;20182;-65
2022/07/19 04:46:54;;;;;;;2.25;1.42;;;24.90;91.30;;;;;;5070534;28;20192;-64
2022/07/19 04:49:20;;;;;;;5.97;1.50;;;25.00;91.80;;;;;;5087253;28;20673;-66
2022/07/19 04:51:47;;;;;;;5.03;1.80;;;25.10;91.30;;;;;;5068528;28;20189;-68
2022/07/19 04:54:13;;;;;;;3.70;1.60;;;25.20;91.50;;;;;;5080890;28;20973;-65
2022/07/19 04:56:39;;;;;;;4.20;1.80;;;25.30;91.60;;;;;;5063409;28;20551;-64
2022/07/19 04:59:06;;;;;;;3.35;1.52;;;25.50;91.80;;;;;;5088173;28;20219;-65
2022/07/19 05:01:34;;;;;;;4.50;1.60;;;25.50;92.00;;;;;;5085313;28;20256;-64
2022/07/19 05:04:00;;;;;;;1.98;1.35;;;25.60;92.00;;;;;;5051338;28;20184;-67
2022/07/19 05:06:27;;;;;;;3.55;1.50;;;25.70;92.00;;;;;;5087597;28;20586;-66
2022/07/19 05:08:56;;;;;;;2.85;1.70;;;25.80;91.90;;;;;;5081797;28;20623;-64
2022/07/19 05:11:22;;;;;;;4.35;1.67;;;25.90;92.30;;;;;;5081860;28;20186;-64
2022/07/19 05:13:49;;;;;;;2.38;1.60;;;26.00;92.30;;;;;;5068320;28;20273;-67
2022/07/19 05:16:16;;;;;;;2.08;1.58;;;26.00;91.90;;;;;;5068749;28;20899;-66
2022/07/19 05:18:43;;;;;;;2.88;1.73;;;26.10;92.30;;;;;;5065087;28;20594;-65
2022/07/19 05:21:10;;;;;;;4.63;1.60;;;26.20;92.20;;;;;;5068757;28;20244;-64
2022/07/19 05:23:37;;;;;;;4.10;1.83;;;26.30;92.20;;;;;;5083295;28;20194;-67
2022/07/19 05:26:03;;;;;;;4.32;1.73;;;26.30;91.80;;;;;;5083066;28;20194;-64
2022/07/19 05:28:29;;;;;;;6.97;2.00;;;26.30;91.80;;;;;;5066075;28;20305;-65
2022/07/19 05:30:56;;;;;;;2.58;1.50;;;26.30;91.10;;;;;;5060869;28;20190;-66
2022/07/19 05:33:22;;;;;;;4.00;1.70;;;26.40;91.50;;;;;;5064300;28;20250;-69
2022/07/19 05:35:48;;;;;;;3.55;2.20;;;26.40;91.70;;;;;;5063660;28;20196;-69
2022/07/19 05:38:15;;;;;;;2.30;1.60;;;26.40;91.40;;;;;;5081740;28;20190;-67
2022/07/19 05:40:43;;;;;;;2.97;1.70;;;26.40;91.40;;;;;;5085432;28;20243;-68
2022/07/19 05:43:09;;;;;;;2.13;1.50;;;26.60;91.30;;;;;;5086651;28;20247;-65
2022/07/19 05:45:35;;;;;;;7.13;1.98;;;26.60;91.30;;;;;;5077230;28;20193;-65
2022/07/19 05:48:01;;;;;;;2.58;1.70;;;26.70;91.00;;;;;;5060992;28;20209;-67
2022/07/19 05:50:28;;;;;;;8.73;1.90;;;26.80;91.30;;;;;;5079284;28;20189;-66
2022/07/19 05:52:54;;;;;;;4.63;1.98;;;26.90;90.90;;;;;;5069479;28;20186;-65
2022/07/19 05:55:21;;;;;;;4.57;1.90;;;27.00;91.00;;;;;;5049000;28;20187;-64
2022/07/19 05:57:47;;;;;;;7.97;2.20;;;27.10;91.20;;;;;;5063967;28;20281;-68
2022/07/19 06:00:14;;;;;;;4.25;1.98;;;27.20;91.40;;;;;;5085397;28;20225;-65
2022/07/19 06:02:43;;;;;;;3.00;2.15;;;27.20;91.40;;;;;;5082425;28;20546;-68
2022/07/19 06:05:10;;;;;;;7.60;2.20;;;27.30;91.20;;;;;;5067122;28;20909;-64
2022/07/19 06:07:37;;;;;;;5.00;2.35;;;27.40;91.10;;;;;;5085207;28;20271;-65
2022/07/19 06:10:04;;;;;;;3.58;2.00;;;27.40;91.60;;;;;;5087158;28;20797;-66
2022/07/19 06:12:30;;;;;;;6.82;2.65;;;27.40;92.00;;;;;;5072780;28;20178;-65
2022/07/19 06:14:57;;;;;;;6.40;2.50;;;27.40;92.90;;;;;;5085826;28;20662;-65
2022/07/19 06:17:23;;;;;;;4.60;2.30;;;27.40;93.50;;;;;;5076926;28;20210;-65
2022/07/19 06:19:50;;;;;;;4.68;2.47;;;27.50;94.00;;;;;;5086150;28;20545;-66
2022/07/19 06:22:16;;;;;;;5.53;2.10;;;27.60;94.20;;;;;;5089925;28;20215;-66
2022/07/19 06:24:42;;;;;;;5.57;1.98;;;27.60;94.00;;;;;;5076110;28;20193;-67
2022/07/19 06:27:09;;;;;;;9.88;2.75;;;27.60;94.10;;;;;;5086053;28;20229;-66
2022/07/19 06:29:35;;;;;;;3.92;1.95;;;27.70;94.60;;;;;;5073445;28;20533;-67
2022/07/19 06:32:02;;;;;;;3.00;2.10;;;27.70;95.30;;;;;;5084616;28;20185;-68
2022/07/19 06:34:28;;;;;;;2.90;1.90;;;27.80;95.20;;;;;;5066777;28;20650;-67
2022/07/19 06:36:54;;;;;;;7.82;1.92;;;27.90;95.20;;;;;;5085466;28;20230;-65
2022/07/19 06:39:21;;;;;;;7.07;2.05;;;27.90;94.50;;;;;;5086004;28;20757;-66
2022/07/19 06:41:48;;;;;;;6.60;1.92;;;28.00;93.60;;;;;;5085425;28;20200;-65
2022/07/19 06:44:14;;;;;;;4.70;2.00;;;28.00;93.30;;;;;;5067926;28;20185;-66
2022/07/19 06:46:40;;;;;;;3.85;1.92;;;28.10;92.90;;;;;;5078647;28;20186;-64
2022/07/19 06:49:06;;;;;;;4.90;1.90;;;28.10;93.00;;;;;;5044736;28;20817;-65
2022/07/19 06:51:33;;;;;;;4.85;2.03;;;28.20;93.20;;;;;;5064836;28;20265;-66
2022/07/19 06:53:59;;;;;;;2.65;1.95;;;28.20;92.20;;;;;;5071993;28;22156;-66
2022/07/19 06:56:25;;;;;;;6.82;1.80;;;28.30;92.50;;;;;;5087915;28;20262;-66
2022/07/19 06:58:52;;;;;;;7.18;1.80;;;28.40;91.90;;;;;;5081227;28;20198;-67
2022/07/19 07:01:19;;;;;;;8.50;2.00;;;28.50;92.90;;;;;;5083412;28;20252;-64
2022/07/19 07:03:46;;;;;;;4.38;2.30;;;28.60;92.30;;;;;;5062587;28;20255;-66
2022/07/19 07:06:12;;;;;;;3.22;1.80;;;28.70;91.90;;;;;;5086576;28;20908;-66
2022/07/19 07:08:38;;;;;;;4.47;1.92;;;28.70;92.60;;;;;;5080700;28;20809;-65
2022/07/19 07:11:05;;;;;;;4.60;1.58;;;28.80;92.60;;;;;;5065706;28;20600;-65
2022/07/19 07:13:31;;;;;;;4.65;2.00;;;28.90;91.50;;;;;;5065139;28;20178;-65
2022/07/19 07:15:58;;;;;;;3.20;2.08;;;29.00;91.60;;;;;;5087568;28;20796;-67
2022/07/19 07:18:24;;;;;;;5.82;2.00;;;29.00;91.70;;;;;;5069001;28;20277;-66
2022/07/19 07:20:50;;;;;;;5.22;2.30;;;29.10;92.30;;;;;;5081747;28;20185;-66
2022/07/19 07:23:19;;;;;;;6.68;2.25;;;29.10;92.90;;;;;;5080934;28;20268;-65
2022/07/19 07:25:45;;;;;;;7.03;2.22;;;29.20;93.30;;;;;;5063314;28;20705;-64
2022/07/19 07:28:12;;;;;;;8.15;2.00;;;29.30;93.50;;;;;;5084655;28;20210;-64
2022/07/19 07:30:38;;;;;;;4.00;1.65;;;29.40;93.60;;;;;;5086434;28;20539;-64
2022/07/19 07:33:04;;;;;;;4.22;1.90;;;29.50;92.20;;;;;;5049283;28;20704;-67
2022/07/19 07:35:31;;;;;;;5.35;1.88;;;29.60;92.00;;;;;;5069831;28;20185;-66
2022/07/19 07:37:57;;;;;;;3.20;1.90;;;29.60;91.90;;;;;;5088383;28;20279;-66
2022/07/19 07:40:23;;;;;;;4.93;1.98;;;29.70;92.10;;;;;;5063384;28;20731;-65
2022/07/19 07:42:50;;;;;;;9.70;1.77;;;29.70;91.20;;;;;;5069393;28;20182;-66
2022/07/19 07:45:16;;;;;;;3.30;1.90;;;29.80;89.50;;;;;;5083235;28;20186;-64
2022/07/19 07:47:42;;;;;;;7.00;2.00;;;29.80;90.40;;;;;;5087177;28;20217;-64
2022/07/19 07:50:11;;;;;;;7.40;1.90;;;29.90;90.50;;;;;;5085613;28;20282;-65
2022/07/19 07:52:37;;;;;;;10.38;2.05;;;29.90;91.00;;;;;;5071199;28;20193;-67
2022/07/19 07:55:05;;;;;;;7.88;2.20;;;30.10;91.10;;;;;;5089696;28;20236;-66
2022/07/19 07:57:32;;;;;;;9.02;1.90;;;30.20;91.70;;;;;;5080684;28;20198;-65
2022/07/19 07:59:59;;;;;;;5.88;2.00;;;30.30;91.20;;;;;;5083702;28;20194;-65
2022/07/19 08:02:25;;;;;;;7.72;2.15;;;30.30;91.30;;;;;;5062083;28;20650;-69
2022/07/19 08:04:51;;;;;;;7.38;1.80;;;30.40;91.70;;;;;;5063775;28;20186;-66
2022/07/19 08:07:17;;;;;;;5.57;1.80;;;30.60;92.40;;;;;;5079767;28;20228;-68
2022/07/19 08:09:44;;;;;;;8.35;2.10;;;30.60;89.50;;;;;;5079018;28;20182;-67
2022/07/19 08:12:10;;;;;;;11.80;1.90;;;30.70;92.40;;;;;;5064085;28;20186;-67
2022/07/19 08:14:36;;;;;;;4.10;1.63;;;30.70;88.70;;;;;;5057177;28;20659;-67
2022/07/19 08:17:03;;;;;;;8.20;1.98;;;30.70;89.50;;;;;;5078202;28;20760;-66
2022/07/19 08:19:29;;;;;;;5.35;1.73;;;30.90;90.00;;;;;;5074814;28;20660;-66
2022/07/19 08:21:55;;;;;;;5.03;2.20;;;31.00;87.80;;;;;;5087450;28;20187;-66
2022/07/19 08:24:22;;;;;;;4.55;1.90;;;31.00;88.80;;;;;;5052502;28;20254;-65
2022/07/19 08:26:48;;;;;;;10.00;1.80;;;31.10;90.70;;;;;;5075444;28;20194;-67
2022/07/19 08:29:14;;;;;;;5.82;2.20;;;31.30;91.20;;;;;;5082018;28;20190;-69
2022/07/19 08:31:40;;;;;;;9.20;1.90;;;31.30;91.10;;;;;;5083882;28;20643;-68
2022/07/19 08:34:07;;;;;;;5.55;1.80;;;31.30;90.10;;;;;;5063017;28;20187;-67
2022/07/19 08:36:33;;;;;;;7.20;1.90;;;31.50;89.70;;;;;;5078909;28;20242;-67
2022/07/19 08:38:59;;;;;;;7.72;2.10;;;31.60;91.00;;;;;;5080520;28;20235;-66
2022/07/19 08:41:26;;;;;;;8.70;2.15;;;31.70;90.30;;;;;;5064984;28;20242;-67
2022/07/19 08:43:53;;;;;;;9.35;2.47;;;31.70;90.60;;;;;;5061946;28;20351;-69
2022/07/19 08:46:25;;;;;;;7.53;1.85;;;31.90;90.00;;;;;;5079311;28;20190;-68
2022/07/19 08:48:52;;;;;;;8.07;2.30;;;31.90;89.10;;;;;;5081531;28;20678;-69
2022/07/19 08:51:20;;;;;;;5.32;2.15;;;32.10;88.10;;;;;;5080859;28;20190;-68
2022/07/19 08:53:49;;;;;;;4.32;2.17;;;32.20;89.70;;;;;;5077762;28;20190;-66
2022/07/19 08:59:03;;;;;;;4.28;1.90;;;32.20;89.20;;;;;;5080828;28;20190;-66
2022/07/19 09:01:30;;;;;;;10.35;2.00;;;32.20;88.80;;;;;;5064118;28;20658;-68
2022/07/19 09:04:14;;;;;;;6.28;1.83;;;32.50;87.40;;;;;;5077062;28;20185;-69
2022/07/19 09:06:46;;;;;;;7.45;1.98;;;32.40;86.60;;;;;;5064332;28;20578;-66
2022/07/19 09:09:27;;;;;;;4.45;2.08;;;32.50;88.40;;;;;;5070238;28;20189;-64
2022/07/19 09:11:58;;;;;;;10.70;1.70;;;32.50;89.40;;;;;;5071315;28;20930;-65
2022/07/19 09:14:34;;;;;;;6.22;2.10;;;32.70;88.70;;;;;;5069791;28;20186;-69
2022/07/19 09:17:06;;;;;;;7.07;1.95;;;32.90;88.80;;;;;;5059755;28;20224;-66
2022/07/19 09:19:41;;;;;;;6.75;2.00;;;32.90;89.70;;;;;;5082882;28;20721;-67
2022/07/19 09:22:17;;;;;;;6.78;1.60;;;33.00;87.90;;;;;;5061132;28;20201;-65
2022/07/19 09:24:50;;;;;;;5.63;2.20;;;33.10;88.30;;;;;;5066144;28;20718;-64
2022/07/19 09:27:25;;;;;;;5.47;1.92;;;33.10;89.00;;;;;;5082065;28;20210;-66
2022/07/19 09:29:56;;;;;;;7.60;2.22;;;33.20;88.30;;;;;;5080585;28;20205;-65
2022/07/19 09:32:25;;;;;;;5.13;1.95;;;33.40;87.30;;;;;;5075804;28;20216;-65
2022/07/19 09:34:56;;;;;;;4.88;1.58;;;33.50;85.50;;;;;;5076569;28;20938;-64
2022/07/19 09:37:29;;;;;;;13.18;1.80;;;33.50;84.30;;;;;;5068271;28;20190;-65
2022/07/19 09:40:03;;;;;;;12.38;2.30;;;33.70;84.90;;;;;;5080332;28;20198;-65
2022/07/19 09:42:37;;;;;;;4.65;2.08;;;33.80;83.90;;;;;;5068259;28;20240;-63
2022/07/19 09:45:20;;;;;;;10.30;2.00;;;33.90;83.40;;;;;;5049057;28;20178;-66
2022/07/19 09:47:48;;;;;;;7.95;1.95;;;34.10;83.00;;;;;;5086331;28;20221;-64
2022/07/19 09:50:18;;;;;;;5.28;1.85;;;34.20;83.10;;;;;;5083118;28;20336;-64
2022/07/19 09:52:47;;;;;;;3.90;1.90;;;34.40;82.10;;;;;;5081902;28;20265;-64
2022/07/19 09:55:15;;;;;;;5.50;1.80;;;34.50;81.10;;;;;;5071359;28;20182;-64
2022/07/19 09:57:47;;;;;;;5.57;1.58;;;34.50;80.70;;;;;;5071089;28;20296;-64
2022/07/19 10:00:17;;;;;;;4.85;1.73;;;34.70;78.20;;;;;;5077557;28;20253;-65
2022/07/19 10:02:50;;;;;;;9.55;1.58;;;34.70;73.50;;;;;;5091853;28;20204;-64
2022/07/19 10:05:17;;;;;;;12.60;1.90;;;34.60;77.90;;;;;;5091521;28;20278;-64
2022/07/19 10:07:44;;;;;;;6.43;1.90;;;34.70;78.20;;;;;;5089670;28;20622;-65
2022/07/19 10:10:14;;;;;;;3.90;1.77;;;34.80;79.00;;;;;;5091002;28;20182;-63
2022/07/19 10:12:43;;;;;;;9.95;2.10;;;34.80;79.00;;;;;;5081452;28;20519;-66
2022/07/19 10:15:15;;;;;;;5.75;1.60;;;34.80;76.50;;;;;;5091657;28;20819;-64
2022/07/19 10:18:14;;;;;;;6.78;1.70;;;34.70;78.60;;;;;;5070641;28;20368;-64
2022/07/19 10:20:47;;;;;;;7.45;2.15;;;34.80;78.80;;;;;;5087390;28;20183;-63
2022/07/19 10:23:13;;;;;;;7.63;2.00;;;35.00;77.80;;;;;;5081422;28;20210;-63
2022/07/19 10:25:47;;;;;;;3.78;1.67;;;35.00;77.60;;;;;;5085520;28;21086;-64
2022/07/19 10:28:38;;;;;;;8.73;1.90;;;35.10;76.20;;;;;;5071520;28;20245;-67
2022/07/19 10:31:26;;;;;;;2.67;1.50;;;34.90;75.90;;;;;;5074538;28;20190;-63
2022/07/19 10:34:10;;;;;;;6.35;1.88;;;34.80;75.20;;;;;;5089852;28;20182;-65
2022/07/19 10:36:49;;;;;;;3.97;1.70;;;34.90;76.10;;;;;;5065686;28;20190;-66
2022/07/19 10:39:21;;;;;;;6.53;1.80;;;35.00;76.90;;;;;;5089969;28;20197;-66
2022/07/19 10:42:16;;;;;;;9.55;1.77;;;35.10;74.30;;;;;;5091309;28;20182;-64
2022/07/19 10:44:57;;;;;;;4.75;1.50;;;35.00;73.60;;;;;;5088392;28;20273;-67
2022/07/19 10:47:39;;;;;;;4.88;1.60;;;35.10;74.30;;;;;;5077540;28;20229;-64
2022/07/19 10:50:14;;;;;;;2.67;1.63;;;35.10;71.00;;;;;;5072524;28;20193;-64
2022/07/19 10:52:43;;;;;;;11.15;1.65;;;35.10;71.80;;;;;;5090627;28;20195;-64
2022/07/19 10:55:19;;;;;;;10.48;1.98;;;35.00;74.30;;;;;;5080841;28;20273;-64
2022/07/19 10:58:07;;;;;;;10.57;2.17;;;35.00;74.00;;;;;;5090185;28;20267;-67
2022/07/19 11:00:48;;;;;;;6.63;1.85;;;35.00;74.70;;;;;;5071141;28;20722;-63
2022/07/19 11:03:21;;;;;;;10.63;1.63;;;35.00;74.90;;;;;;5076055;28;20186;-64
2022/07/19 11:06:27;;;;;;;5.55;1.60;;;34.90;75.80;;;;;;5077070;28;20204;-63
2022/07/19 11:08:57;;;;;;;5.10;1.85;;;35.10;75.70;;;;;;5046132;28;20705;-65
2022/07/19 11:11:28;;;;;;;5.97;1.67;;;34.90;74.80;;;;;;5089781;28;20301;-67
2022/07/19 11:13:58;;;;;;;11.02;1.83;;;34.90;75.30;;;;;;5090649;28;20223;-64
2022/07/19 11:16:28;;;;;;;5.82;1.90;;;34.80;75.20;;;;;;5086727;28;20228;-64
2022/07/19 11:19:07;;;;;;;7.65;2.10;;;34.90;75.40;;;;;;5067357;28;20862;-63
2022/07/19 11:21:36;;;;;;;19.02;2.28;;;34.90;75.50;;;;;;5081503;28;20197;-64
2022/07/19 11:24:06;;;;;;;4.53;2.15;;;35.00;75.90;;;;;;5077344;28;20213;-64
2022/07/19 11:26:40;;;;;;;6.80;1.73;;;34.80;74.10;;;;;;5064452;28;20535;-65
2022/07/19 11:29:07;;;;;;;6.53;1.90;;;34.80;75.20;;;;;;5081632;28;20359;-65
2022/07/19 11:31:33;;;;;;;7.80;1.63;;;34.80;76.30;;;;;;5059758;28;20190;-65
2022/07/19 11:34:01;;;;;;;2.95;1.55;;;34.80;76.20;;;;;;5066251;28;20186;-65
2022/07/19 11:36:28;;;;;;;5.35;1.58;;;34.70;76.40;;;;;;5062230;28;20281;-65
2022/07/19 11:39:00;;;;;;;10.23;1.98;;;34.70;76.20;;;;;;5074992;28;20183;-63
2022/07/19 11:41:31;;;;;;;9.35;2.08;;;34.80;77.50;;;;;;5068871;28;20875;-64
2022/07/19 11:44:08;;;;;;;12.27;1.73;;;34.80;76.20;;;;;;5073773;28;20207;-65
2022/07/19 11:46:44;;;;;;;5.53;2.00;;;34.70;76.00;;;;;;5082722;28;20192;-63
2022/07/19 11:49:13;;;;;;;6.75;1.75;;;34.60;75.90;;;;;;5081137;28;20225;-66
2022/07/19 11:51:39;;;;;;;4.25;1.40;;;34.70;76.40;;;;;;5081646;28;20251;-64
2022/07/19 11:54:07;;;;;;;7.47;1.60;;;34.70;75.50;;;;;;5085031;28;20193;-64
2022/07/19 11:56:36;;;;;;;5.65;1.80;;;34.70;74.80;;;;;;5097100;28;20591;-64
2022/07/19 11:59:10;;;;;;;7.85;1.80;;;34.70;76.80;;;;;;5081979;28;20201;-63
2022/07/19 12:01:40;;;;;;;3.75;1.83;;;34.70;76.10;;;;;;5084220;28;20289;-66
2022/07/19 12:04:11;;;;;;;10.55;1.80;;;34.60;76.80;;;;;;5061127;28;20182;-67
2022/07/19 12:06:42;;;;;;;3.78;1.58;;;34.60;76.20;;;;;;5084651;28;20263;-68
2022/07/19 12:09:32;;;;;;;8.13;2.10;;;34.50;76.50;;;;;;5064834;28;20217;-67
2022/07/19 12:11:59;;;;;;;8.70;1.67;;;34.50;76.30;;;;;;5081435;28;20183;-65
2022/07/19 12:14:34;;;;;;;19.92;1.95;;;34.60;76.30;;;;;;5047227;28;20189;-67
2022/07/19 12:17:21;;;;;;;5.28;1.67;;;34.50;76.40;;;;;;5062090;28;20550;-66
2022/07/19 12:19:54;;;;;;;3.63;1.77;;;34.40;77.50;;;;;;5083637;28;20182;-66
2022/07/19 12:22:40;;;;;;;5.25;1.40;;;34.30;77.10;;;;;;5061872;28;20182;-64
2022/07/19 12:25:08;;;;;;;7.28;1.48;;;34.30;77.40;;;;;;5078142;28;20704;-68
2022/07/19 12:27:36;;;;;;;3.75;1.60;;;34.40;77.20;;;;;;5085297;28;20210;-65
2022/07/19 12:30:05;;;;;;;6.03;1.75;;;34.40;76.60;;;;;;5062665;28;20198;-67
2022/07/19 12:32:35;;;;;;;3.03;1.85;;;34.50;76.90;;;;;;5062099;28;20186;-69
2022/07/19 12:35:11;;;;;;;4.47;1.67;;;34.40;76.60;;;;;;5062997;28;20185;-64
2022/07/19 12:37:41;;;;;;;6.10;1.70;;;34.10;76.50;;;;;;5065900;28;21167;-63
2022/07/19 12:40:11;;;;;;;6.38;1.80;;;34.20;76.90;;;;;;5086410;28;20190;-65
2022/07/19 12:42:49;;;;;;;9.02;1.80;;;34.20;76.40;;;;;;5086286;28;20537;-65
2022/07/19 12:45:20;;;;;;;6.93;1.65;;;34.30;75.70;;;;;;5080963;28;20197;-64
2022/07/19 12:47:48;;;;;;;12.23;1.80;;;34.20;74.90;;;;;;5067269;28;20241;-63
2022/07/19 12:50:29;;;;;;;4.00;1.80;;;34.20;76.50;;;;;;5066353;28;20886;-66
2022/07/19 12:53:00;;;;;;;5.85;1.50;;;34.30;75.20;;;;;;5069957;28;20205;-66
2022/07/19 12:55:29;;;;;;;4.40;1.75;;;34.30;75.00;;;;;;5088035;28;20193;-66